Observation data for Tatum on 11/18/2019      Previous  Date       Current Mesonet Observations  Soil Data  Daily Summary Page  Observations in Plain Language
KTAT 180600Z 21006KT 01/M01 A301 RMK A01 T00141014  RH  083%=      5-min Rain = 0
KTAT 180605Z 21006KT 01/M01 A301 RMK A01 T00141014  RH  083%=      5-min Rain = 0
KTAT 180610Z 21007KT 01/M01 A301 RMK A01 T00141013  RH  083%=      5-min Rain = 0
KTAT 180615Z 21007KT 02/M01 A3009 RMK A01 T00151012  RH  083%=      5-min Rain = 0
KTAT 180620Z 21007KT 02/M01 A3009 RMK A01 T00181009  RH  083%=      5-min Rain = 0
KTAT 180625Z 22007KT 02/M01 A3009 RMK A01 T00211008  RH  082%=      5-min Rain = 0
KTAT 180630Z 22007KT 02/M01 A3009 RMK A01 T00211009  RH  081%=      5-min Rain = 0
KTAT 180635Z 21007KT 02/M01 A3008 RMK A01 T00221008  RH  082%=      5-min Rain = 0
KTAT 180640Z 21007KT 02/M01 A3008 RMK A01 T00221008  RH  081%=      5-min Rain = 0
KTAT 180645Z 21007KT 02/M01 A3008 RMK A01 T00231008  RH  081%=      5-min Rain = 0
KTAT 180650Z 21007KT 02/M01 A3008 RMK A01 T00231009  RH  080%=      5-min Rain = 0
KTAT 180655Z 22008KT 02/M01 A3008 RMK A01 T00231008  RH  080%=      5-min Rain = 0
KTAT 180700Z 22008KT 03/M01 A3008 RMK A01 T00251008  RH  080%=      5-min Rain = 0
KTAT 180705Z 22007KT 03/M01 A3008 RMK A01 T00261007  RH  080%=      5-min Rain = 0
KTAT 180710Z 22007KT 03/M01 A3008 RMK A01 T00271008  RH  079%=      5-min Rain = 0
KTAT 180715Z 22008KT 03/M01 A3007 RMK A01 T00261008  RH  079%=      5-min Rain = 0
KTAT 180720Z 22007KT 03/M01 A3007 RMK A01 T00261008  RH  079%=      5-min Rain = 0
KTAT 180725Z 22007KT 03/M01 A3007 RMK A01 T00261008  RH  079%=      5-min Rain = 0
KTAT 180730Z 22007KT 03/M01 A3007 RMK A01 T00261008  RH  079%=      5-min Rain = 0
KTAT 180735Z 23007KT 03/M01 A3007 RMK A01 T00261009  RH  079%=      5-min Rain = 0
KTAT 180740Z 22007KT 03/M01 A3006 RMK A01 T00251009  RH  079%=      5-min Rain = 0
KTAT 180745Z 22007KT 02/M01 A3006 RMK A01 T00231010  RH  080%=      5-min Rain = 0
KTAT 180750Z 22007KT 02/M01 A3006 RMK A01 T00221010  RH  080%=      5-min Rain = 0
KTAT 180755Z 22007KT 02/M01 A3006 RMK A01 T00231009  RH  081%=      5-min Rain = 0
KTAT 180800Z 23007KT 02/M01 A3006 RMK A01 T00231009  RH  080%=      5-min Rain = 0
KTAT 180805Z 22007KT 02/M01 A3006 RMK A01 T00221011  RH  080%=      5-min Rain = 0
KTAT 180810Z 22007KT 02/M01 A3006 RMK A01 T00211010  RH  081%=      5-min Rain = 0
KTAT 180815Z 22007KT 02/M01 A3006 RMK A01 T00221009  RH  081%=      5-min Rain = 0
KTAT 180820Z 22006KT 02/M01 A3005 RMK A01 T00231009  RH  080%=      5-min Rain = 0
KTAT 180825Z 22008KT 03/M01 A3005 RMK A01 T00261006  RH  080%=      5-min Rain = 0
KTAT 180830Z 22008KT 04/M01 A3005 RMK A01 T00351005  RH  076%=      5-min Rain = 0
KTAT 180835Z 22008KT 03/M01 A3005 RMK A01 T00321007  RH  076%=      5-min Rain = 0
KTAT 180840Z 22007KT 03/M01 A3005 RMK A01 T00321007  RH  077%=      5-min Rain = 0
KTAT 180845Z 22007KT 03/M01 A3005 RMK A01 T00311008  RH  077%=      5-min Rain = 0
KTAT 180850Z 21007KT 03/M01 A3004 RMK A01 T00271009  RH  078%=      5-min Rain = 0
KTAT 180855Z 22007KT 03/M01 A3004 RMK A01 T00261009  RH  078%=      5-min Rain = 0
KTAT 180900Z 22008KT 02/M01 A3004 RMK A01 T00241010  RH  079%=      5-min Rain = 0
KTAT 180905Z 22008KT 02/M01 A3004 RMK A01 T00241010  RH  079%=      5-min Rain = 0
KTAT 180910Z 23009KT 03/M01 A3003 RMK A01 T00251009  RH  079%=      5-min Rain = 0
KTAT 180915Z 23009KT 03/M01 A3003 RMK A01 T00251010  RH  079%=      5-min Rain = 0
KTAT 180920Z 23008KT 02/M01 A3003 RMK A01 T00241010  RH  079%=      5-min Rain = 0
KTAT 180925Z 23008KT 02/M01 A3003 RMK A01 T00231011  RH  079%=      5-min Rain = 0
KTAT 180930Z 23008KT 02/M01 A3003 RMK A01 T00231011  RH  079%=      5-min Rain = 0
KTAT 180935Z 23008KT 02/M01 A3003 RMK A01 T00241010  RH  079%=      5-min Rain = 0
KTAT 180940Z 23008KT 02/M01 A3003 RMK A01 T00241011  RH  079%=      5-min Rain = 0
KTAT 180945Z 23008KT 02/M01 A3003 RMK A01 T00211012  RH  080%=      5-min Rain = 0
KTAT 180950Z 23008KT 02/M01 A3003 RMK A01 T00201011  RH  080%=      5-min Rain = 0
KTAT 180955Z 23009KT 02/M01 A3003 RMK A01 T00191011  RH  081%=      5-min Rain = 0
KTAT 181000Z 23009KT 02/M01 A3003 RMK A01 T00201011  RH  081%=      5-min Rain = 0
KTAT 181005Z 23008KT 02/M01 A3002 RMK A01 T00201011  RH  081%=      5-min Rain = 0
KTAT 181010Z 23008KT 02/M01 A3002 RMK A01 T00191011  RH  081%=      5-min Rain = 0
KTAT 181015Z 23008KT 02/M01 A3002 RMK A01 T00191011  RH  081%=      5-min Rain = 0
KTAT 181020Z 22008KT 02/M01 A3002 RMK A01 T00191011  RH  082%=      5-min Rain = 0
KTAT 181025Z 22008KT 02/M01 A3002 RMK A01 T00181011  RH  082%=      5-min Rain = 0
KTAT 181030Z 22008KT 02/M01 A3002 RMK A01 T00181011  RH  082%=      5-min Rain = 0
KTAT 181035Z 22008KT 02/M01 A3001 RMK A01 T00191011  RH  082%=      5-min Rain = 0
KTAT 181040Z 23008KT 02/M01 A3001 RMK A01 T00221009  RH  081%=      5-min Rain = 0
KTAT 181045Z 22008KT 02/M01 A3001 RMK A01 T00241010  RH  080%=      5-min Rain = 0
KTAT 181050Z 22008KT 03/M01 A3001 RMK A01 T00251010  RH  079%=      5-min Rain = 0
KTAT 181055Z 22008KT 02/M01 A3001 RMK A01 T00231010  RH  079%=      5-min Rain = 0
KTAT 181100Z 22008KT 02/M01 A3001 RMK A01 T00231010  RH  079%=      5-min Rain = 0
KTAT 181105Z 22009KT 03/M01 A3001 RMK A01 T00251009  RH  079%=      5-min Rain = 0
KTAT 181110Z 22008KT 03/M01 A3001 RMK A01 T00271009  RH  078%=      5-min Rain = 0
KTAT 181115Z 22009KT 03/M01 A30 RMK A01 T00281008  RH  078%=      5-min Rain = 0
KTAT 181120Z 22009KT 03/M01 A30 RMK A01 T00291008  RH  078%=      5-min Rain = 0
KTAT 181125Z 22009KT 03/M01 A30 RMK A01 T00301008  RH  077%=      5-min Rain = 0
KTAT 181130Z 22009KT 03/M01 A30 RMK A01 T00321007  RH  077%=      5-min Rain = 0
KTAT 181135Z 22009KT 04/M01 A30 RMK A01 T00351006  RH  075%=      5-min Rain = 0
KTAT 181140Z 22009KT 04/M01 A30 RMK A01 T00381006  RH  074%=      5-min Rain = 0
KTAT 181145Z 22009KT 04/M01 A30 RMK A01 T00401005  RH  073%=      5-min Rain = 0
KTAT 181150Z 22010KT 04/M00 A30 RMK A01 T00431004  RH  072%=      5-min Rain = 0
KTAT 181155Z 22010KT 05/M00 A2999 RMK A01 T00451004  RH  071%=      5-min Rain = 0
KTAT 181200Z 22010KT 05/M00 A2999 RMK A01 T00471004  RH  070%=      5-min Rain = 0
KTAT 181205Z 22010KT 05/M01 A2999 RMK A01 T00471005  RH  070%=      5-min Rain = 0
KTAT 181210Z 22009KT 05/M01 A2999 RMK A01 T00451006  RH  071%=      5-min Rain = 0
KTAT 181215Z 22009KT 05/M01 A2999 RMK A01 T00451005  RH  071%=      5-min Rain = 0
KTAT 181220Z 22011KT 05/M01 A2999 RMK A01 T00471005  RH  070%=      5-min Rain = 0
KTAT 181225Z 22011KT 05/M01 A2999 RMK A01 T00481005  RH  069%=      5-min Rain = 0
KTAT 181230Z 22010KT 05/M01 A2999 RMK A01 T00501005  RH  068%=      5-min Rain = 0
KTAT 181235Z 22011KT 05/M01 A2999 RMK A01 T00531005  RH  067%=      5-min Rain = 0
KTAT 181240Z 22011KT 05/M01 A2999 RMK A01 T00541005  RH  067%=      5-min Rain = 0
KTAT 181245Z 22011KT 05/M01 A2999 RMK A01 T00541006  RH  066%=      5-min Rain = 0
KTAT 181250Z 23010KT 06/M01 A2999 RMK A01 T00561006  RH  065%=      5-min Rain = 0
KTAT 181255Z 23011KT 06/M01 A2999 RMK A01 T00571006  RH  064%=      5-min Rain = 0
KTAT 181300Z 23013KT 06/M01 A2998 RMK A01 T00601006  RH  064%=      5-min Rain = 0
KTAT 181305Z 23013KT 06/M01 A2998 RMK A01 T00601006  RH  063%=      5-min Rain = 0
KTAT 181310Z 23013KT 06/M01 A2998 RMK A01 T00611006  RH  063%=      5-min Rain = 0
KTAT 181315Z 23013KT 06/M01 A2999 RMK A01 T00621006  RH  063%=      5-min Rain = 0
KTAT 181320Z 24013KT 06/M01 A2999 RMK A01 T00621006  RH  062%=      5-min Rain = 0
KTAT 181325Z 23013KT 06/M01 A2999 RMK A01 T00621006  RH  062%=      5-min Rain = 0
KTAT 181330Z 23014KT 06/M01 A2999 RMK A01 T00641007  RH  061%=      5-min Rain = 0
KTAT 181335Z 23014KT 07/M01 A2999 RMK A01 T00651007  RH  061%=      5-min Rain = 0
KTAT 181340Z 24012KT 07/M01 A30 RMK A01 T00661007  RH  060%=      5-min Rain = 0
KTAT 181345Z 24012KT 07/M01 A30 RMK A01 T00671007  RH  060%=      5-min Rain = 0
KTAT 181350Z 24012KT 07/M01 A30 RMK A01 T00681007  RH  059%=      5-min Rain = 0
KTAT 181355Z 24011KT 07/M01 A30 RMK A01 T00691007  RH  059%=      5-min Rain = 0
KTAT 181400Z 24012KT 07/M01 A30 RMK A01 T00711007  RH  059%=      5-min Rain = 0
KTAT 181405Z 25011KT 07/M01 A30 RMK A01 T00731006  RH  058%=      5-min Rain = 0
KTAT 181410Z 25012KT 08/M01 A3001 RMK A01 T00761006  RH  057%=      5-min Rain = 0
KTAT 181415Z 25012KT 08/M01 A3001 RMK A01 T00791006  RH  055%=      5-min Rain = 0
KTAT 181420Z 25012KT 08/M01 A3001 RMK A01 T00821006  RH  054%=      5-min Rain = 0
KTAT 181425Z 25012KT 09/M01 A3001 RMK A01 T00871006  RH  053%=      5-min Rain = 0
KTAT 181430Z 25012KT 09/M01 A3001 RMK A01 T00911005  RH  051%=      5-min Rain = 0
KTAT 181435Z 26013KT 10/M01 A30 RMK A01 T00951005  RH  050%=      5-min Rain = 0
KTAT 181440Z 25014KT 10/M01 A30 RMK A01 T01011006  RH  048%=      5-min Rain = 0
KTAT 181445Z 25014KT 11/M01 A3001 RMK A01 T01081008  RH  045%=      5-min Rain = 0
KTAT 181450Z 26014KT 11/M01 A3001 RMK A01 T01141010  RH  043%=      5-min Rain = 0
KTAT 181455Z 25013KT 12/M01 A3001 RMK A01 T01191010  RH  041%=      5-min Rain = 0
KTAT 181500Z 26013KT 12/M01 A3001 RMK A01 T01221012  RH  040%=      5-min Rain = 0
KTAT 181505Z 26012KT 13/M01 A3001 RMK A01 T01261013  RH  038%=      5-min Rain = 0
KTAT 181510Z 26010KT 13/M01 A3001 RMK A01 T01311014  RH  037%=      5-min Rain = 0
KTAT 181515Z 26012KT 14/M02 A3001 RMK A01 T01361018  RH  035%=      5-min Rain = 0
KTAT 181520Z 27013KT 14/M02 A3001 RMK A01 T01401021  RH  033%=      5-min Rain = 0
KTAT 181525Z 27012KT 14/M02 A3001 RMK A01 T01441022  RH  032%=      5-min Rain = 0
KTAT 181530Z 28013KT 15/M03 A3001 RMK A01 T01501028  RH  029%=      5-min Rain = 0
KTAT 181535Z 28016KT 15/M03 A3001 RMK A01 T01541033  RH  027%=      5-min Rain = 0
KTAT 181540Z 28016KT 16/M04 A3002 RMK A01 T01581035  RH  026%=      5-min Rain = 0
KTAT 181545Z 28018KT 16/M04 A3002 RMK A01 T01611038  RH  025%=      5-min Rain = 0
KTAT 181550Z 28016G22KT 16/M04 A3002 RMK A01 T01641037  RH  025%=      5-min Rain = 0
KTAT 181555Z 29019G24KT 17/M04 A3002 RMK A01 T01651042  RH  024%=      5-min Rain = 0
KTAT 181600Z 29017G23KT 17/M04 A3002 RMK A01 T01691042  RH  024%=      5-min Rain = 0
KTAT 181605Z 28018G23KT 17/M05 A3002 RMK A01 T01701045  RH  023%=      5-min Rain = 0
KTAT 181610Z 29018KT 17/M05 A3002 RMK A01 T01701046  RH  022%=      5-min Rain = 0
KTAT 181615Z 29017G24KT 17/M05 A3002 RMK A01 T01731046  RH  022%=      5-min Rain = 0
KTAT 181620Z 30019KT 17/M05 A3002 RMK A01 T01741049  RH  021%=      5-min Rain = 0
KTAT 181625Z 29020G25KT 18/M05 A3002 RMK A01 T01761052  RH  021%=      5-min Rain = 0
KTAT 181630Z 29020G25KT 18/M05 A3002 RMK A01 T01761052  RH  021%=      5-min Rain = 0
KTAT 181635Z 30017G23KT 18/M05 A3002 RMK A01 T01791047  RH  021%=      5-min Rain = 0
KTAT 181640Z 29018KT 18/M05 A3001 RMK A01 T01801048  RH  021%=      5-min Rain = 0
KTAT 181645Z 29019KT 18/M05 A3001 RMK A01 T01801047  RH  021%=      5-min Rain = 0
KTAT 181650Z 29018KT 18/M05 A3001 RMK A01 T01781048  RH  021%=      5-min Rain = 0
KTAT 181655Z 30018G23KT 18/M05 A3001 RMK A01 T01791048  RH  021%=      5-min Rain = 0
KTAT 181700Z 30017KT 18/M05 A3001 RMK A01 T01791046  RH  021%=      5-min Rain = 0
KTAT 181705Z 29017KT 18/M05 A3001 RMK A01 T01831046  RH  021%=      5-min Rain = 0
KTAT 181710Z 30017KT 19/M05 A30 RMK A01 T01851050  RH  020%=      5-min Rain = 0
KTAT 181715Z 30016KT 19/M05 A30 RMK A01 T01871051  RH  019%=      5-min Rain = 0
KTAT 181720Z 31014KT 19/M05 A30 RMK A01 T01891050  RH  019%=      5-min Rain = 0
KTAT 181725Z 31015KT 19/M05 A30 RMK A01 T01911052  RH  019%=      5-min Rain = 0
KTAT 181730Z 30014KT 19/M05 A30 RMK A01 T01931052  RH  019%=      5-min Rain = 0
KTAT 181735Z 31014KT 20/M05 A30 RMK A01 T01951052  RH  018%=      5-min Rain = 0
KTAT 181740Z 31014KT 20/M05 A30 RMK A01 T01951053  RH  018%=      5-min Rain = 0
KTAT 181745Z 31013KT 20/M05 A30 RMK A01 T01961052  RH  018%=      5-min Rain = 0
KTAT 181750Z 31013KT 20/M06 A30 RMK A01 T02011055  RH  017%=      5-min Rain = 0
KTAT 181755Z 32014G20KT 20/M06 A30 RMK A01 T02001060  RH  017%=      5-min Rain = 0
KTAT 181800Z 31012G17KT 20/M06 A30 RMK A01 T02011056  RH  017%=      5-min Rain = 0
KTAT 181805Z 31013G18KT 20/M06 A30 RMK A01 T02041056  RH  017%=      5-min Rain = 0
KTAT 181810Z 32012KT 21/M06 A30 RMK A01 T02071055  RH  017%=      5-min Rain = 0
KTAT 181815Z 32011KT 21/M06 A2999 RMK A01 T02121055  RH  016%=      5-min Rain = 0
KTAT 181820Z 32011KT 21/M06 A2999 RMK A01 T02141055  RH  016%=      5-min Rain = 0
KTAT 181825Z 33011G16KT 22/M06 A2999 RMK A01 T02161057  RH  016%=      5-min Rain = 0
KTAT 181830Z 32010KT 22/M06 A2998 RMK A01 T02181055  RH  016%=      5-min Rain = 0
KTAT 181835Z 33011G16KT 22/M06 A2998 RMK A01 T02181058  RH  015%=      5-min Rain = 0
KTAT 181840Z 33009KT 22/M06 A2998 RMK A01 T02221057  RH  015%=      5-min Rain = 0
KTAT 181845Z 33010KT 22/M06 A2997 RMK A01 T02231059  RH  015%=      5-min Rain = 0
KTAT 181850Z 34011KT 23/M06 A2997 RMK A01 T02251058  RH  015%=      5-min Rain = 0
KTAT 181855Z 34011KT 23/M06 A2997 RMK A01 T02251057  RH  015%=      5-min Rain = 0
KTAT 181900Z 35011KT 23/M06 A2997 RMK A01 T02271055  RH  015%=      5-min Rain = 0
KTAT 181905Z 00012G17KT 23/M05 A2996 RMK A01 T02281053  RH  015%=      5-min Rain = 0
KTAT 181910Z 34010G16KT 23/M06 A2996 RMK A01 T02261056  RH  015%=      5-min Rain = 0
KTAT 181915Z 36009KT 23/M05 A2996 RMK A01 T02291053  RH  015%=      5-min Rain = 0
KTAT 181920Z 35010G15KT 23/M05 A2996 RMK A01 T02301054  RH  015%=      5-min Rain = 0
KTAT 181925Z 36011G17KT 23/M05 A2996 RMK A01 T02331050  RH  015%=      5-min Rain = 0
KTAT 181930Z 36010G15KT 23/M05 A2996 RMK A01 T02321053  RH  015%=      5-min Rain = 0
KTAT 181935Z 36009KT 23/M05 A2995 RMK A01 T02301053  RH  015%=      5-min Rain = 0
KTAT 181940Z 00011G17KT 23/M05 A2995 RMK A01 T02331050  RH  015%=      5-min Rain = 0
KTAT 181945Z 01010KT 24/M05 A2995 RMK A01 T02351048  RH  015%=      5-min Rain = 0
KTAT 181950Z 01010G15KT 23/M05 A2995 RMK A01 T02331047  RH  015%=      5-min Rain = 0
KTAT 181955Z 01012KT 23/M05 A2995 RMK A01 T02341045  RH  015%=      5-min Rain = 0
KTAT 182000Z 02010KT 23/M05 A2995 RMK A01 T02311047  RH  015%=      5-min Rain = 0
KTAT 182005Z 00009KT 23/M05 A2995 RMK A01 T02321048  RH  015%=      5-min Rain = 0
KTAT 182010Z 01009G14KT 23/M04 A2995 RMK A01 T02341044  RH  015%=      5-min Rain = 0
KTAT 182015Z 02010KT 23/M04 A2994 RMK A01 T02341043  RH  016%=      5-min Rain = 0
KTAT 182020Z 00007G13KT 24/M04 A2994 RMK A01 T02351044  RH  015%=      5-min Rain = 0
KTAT 182025Z 02010KT 24/M04 A2994 RMK A01 T02351042  RH  016%=      5-min Rain = 0
KTAT 182030Z 02008KT 24/M04 A2994 RMK A01 T02361041  RH  016%=      5-min Rain = 0
KTAT 182035Z 00008KT 24/M04 A2994 RMK A01 T02371041  RH  015%=      5-min Rain = 0
KTAT 182040Z 01010KT 24/M04 A2994 RMK A01 T02361040  RH  016%=      5-min Rain = 0
KTAT 182045Z 02007KT 24/M04 A2994 RMK A01 T02381041  RH  015%=      5-min Rain = 0
KTAT 182050Z 36006KT 24/M04 A2994 RMK A01 T02371044  RH  015%=      5-min Rain = 0
KTAT 182055Z 01009KT 24/M04 A2994 RMK A01 T02371041  RH  015%=      5-min Rain = 0
KTAT 182100Z 01009KT 24/M04 A2994 RMK A01 T02361044  RH  015%=      5-min Rain = 0
KTAT 182105Z 00007KT 24/M05 A2994 RMK A01 T02371045  RH  015%=      5-min Rain = 0
KTAT 182110Z 35008KT 24/M05 A2994 RMK A01 T02381045  RH  015%=      5-min Rain = 0
KTAT 182115Z 35009KT 24/M05 A2994 RMK A01 T02371047  RH  015%=      5-min Rain = 0
KTAT 182120Z 35008KT 24/M04 A2994 RMK A01 T02381044  RH  015%=      5-min Rain = 0
KTAT 182125Z 35008KT 24/M05 A2994 RMK A01 T02381045  RH  015%=      5-min Rain = 0
KTAT 182130Z 36009KT 24/M04 A2994 RMK A01 T02381043  RH  015%=      5-min Rain = 0
KTAT 182135Z 00007KT 24/M04 A2994 RMK A01 T02371042  RH  015%=      5-min Rain = 0
KTAT 182140Z 01008KT 24/M04 A2994 RMK A01 T02381040  RH  016%=      5-min Rain = 0
KTAT 182145Z 35006KT 24/M04 A2994 RMK A01 T02371043  RH  015%=      5-min Rain = 0
KTAT 182150Z 36008KT 24/M04 A2994 RMK A01 T02381041  RH  015%=      5-min Rain = 0
KTAT 182155Z 36010KT 24/M04 A2994 RMK A01 T02361044  RH  015%=      5-min Rain = 0
KTAT 182200Z 01008KT 24/M04 A2994 RMK A01 T02351038  RH  016%=      5-min Rain = 0
KTAT 182205Z 01008KT 23/M04 A2995 RMK A01 T02341040  RH  016%=      5-min Rain = 0
KTAT 182210Z 00006KT 23/M04 A2995 RMK A01 T02341041  RH  016%=      5-min Rain = 0
KTAT 182215Z 35010KT 23/M04 A2995 RMK A01 T02341041  RH  016%=      5-min Rain = 0
KTAT 182220Z 35008KT 23/M05 A2995 RMK A01 T02341045  RH  015%=      5-min Rain = 0
KTAT 182225Z 36009KT 23/M04 A2995 RMK A01 T02341042  RH  016%=      5-min Rain = 0
KTAT 182230Z 00008KT 23/M04 A2995 RMK A01 T02321039  RH  016%=      5-min Rain = 0
KTAT 182235Z 01007KT 23/M04 A2995 RMK A01 T02311036  RH  017%=      5-min Rain = 0
KTAT 182240Z 35006KT 23/M03 A2995 RMK A01 T02301028  RH  018%=      5-min Rain = 0
KTAT 182245Z 33005KT 23/M04 A2995 RMK A01 T02311042  RH  016%=      5-min Rain = 0
KTAT 182250Z 34004KT 23/M04 A2995 RMK A01 T02321043  RH  016%=      5-min Rain = 0
KTAT 182255Z 01003KT 23/M03 A2995 RMK A01 T02321034  RH  017%=      5-min Rain = 0
KTAT 182300Z 00002KT 23/M02 A2995 RMK A01 T02301018  RH  019%=      5-min Rain = 0
KTAT 182305Z 35002KT 23/M02 A2995 RMK A01 T02291020  RH  019%=      5-min Rain = 0
KTAT 182310Z 35003KT 23/M02 A2995 RMK A01 T02281021  RH  019%=      5-min Rain = 0
KTAT 182315Z 36003KT 22/M02 A2995 RMK A01 T02221018  RH  020%=      5-min Rain = 0
KTAT 182320Z 35004KT 22/M02 A2995 RMK A01 T02171021  RH  020%=      5-min Rain = 0
KTAT 182325Z 36005KT 21/M02 A2995 RMK A01 T02101020  RH  021%=      5-min Rain = 0
KTAT 182330Z 36005KT 20/M01 A2995 RMK A01 T02021012  RH  024%=      5-min Rain = 0
KTAT 182335Z 00007KT 19/M01 A2995 RMK A01 T01931014  RH  025%=      5-min Rain = 0
KTAT 182340Z 01007KT 18/01 A2995 RMK A01 T01810008  RH  032%=      5-min Rain = 0
KTAT 182345Z 01006KT 17/01 A2995 RMK A01 T01710009  RH  034%=      5-min Rain = 0
KTAT 182350Z 00006KT 17/01 A2996 RMK A01 T01660006  RH  034%=      5-min Rain = 0
KTAT 182355Z 36005KT 16/M01 A2996 RMK A01 T01631006  RH  032%=      5-min Rain = 0
KTAT 190000Z 36005KT 16/M02 A2996 RMK A01 T01601017  RH  030%=      5-min Rain = 0
KTAT 190005Z 35005KT 16/M02 A2996 RMK A01 T01581018  RH  030%=      5-min Rain = 0
KTAT 190010Z 00006KT 15/M02 A2996 RMK A01 T01541019  RH  031%=      5-min Rain = 0
KTAT 190015Z 01005KT 15/M01 A2996 RMK A01 T01501013  RH  033%=      5-min Rain = 0
KTAT 190020Z 02005KT 15/M01 A2996 RMK A01 T01501009  RH  034%=      5-min Rain = 0
KTAT 190025Z 02005KT 15/M01 A2997 RMK A01 T01511009  RH  034%=      5-min Rain = 0
KTAT 190030Z 02004KT 15/M00 A2997 RMK A01 T01471004  RH  036%=      5-min Rain = 0
KTAT 190035Z 02004KT 14/M01 A2997 RMK A01 T01361005  RH  038%=      5-min Rain = 0
KTAT 190040Z 02005KT 13/M01 A2997 RMK A01 T01301013  RH  037%=      5-min Rain = 0
KTAT 190045Z 02005KT 12/M01 A2997 RMK A01 T01231011  RH  040%=      5-min Rain = 0
KTAT 190050Z 02005KT 12/M01 A2997 RMK A01 T01191011  RH  041%=      5-min Rain = 0
KTAT 190055Z 02005KT 11/M01 A2997 RMK A01 T01141013  RH  042%=      5-min Rain = 0
KTAT 190100Z 02004KT 11/M01 A2998 RMK A01 T01101013  RH  043%=      5-min Rain = 0
KTAT 190105Z 03006KT 12/M01 A2998 RMK A01 T01151014  RH  041%=      5-min Rain = 0
KTAT 190110Z 03006KT 11/M01 A2998 RMK A01 T01121011  RH  043%=      5-min Rain = 0
KTAT 190115Z 03006KT 11/M01 A2998 RMK A01 T01071007  RH  046%=      5-min Rain = 0
KTAT 190120Z 03007KT 11/00 A2998 RMK A01 T01080000  RH  048%=      5-min Rain = 0
KTAT 190125Z 03006KT 11/01 A2998 RMK A01 T01110005  RH  048%=      5-min Rain = 0
KTAT 190130Z 03006KT 11/01 A2999 RMK A01 T01060008  RH  051%=      5-min Rain = 0
KTAT 190135Z 03008KT 10/01 A2999 RMK A01 T01000008  RH  053%=      5-min Rain = 0
KTAT 190140Z 02008KT 10/01 A2999 RMK A01 T00970007  RH  054%=      5-min Rain = 0
KTAT 190145Z 02008KT 10/01 A2999 RMK A01 T00970007  RH  054%=      5-min Rain = 0
KTAT 190150Z 03007KT 10/01 A2999 RMK A01 T00950008  RH  055%=      5-min Rain = 0
KTAT 190155Z 03006KT 10/01 A2999 RMK A01 T00950009  RH  056%=      5-min Rain = 0
KTAT 190200Z 02006KT 10/01 A30 RMK A01 T00950006  RH  055%=      5-min Rain = 0
KTAT 190205Z 02005KT 09/00 A30 RMK A01 T00930003  RH  054%=      5-min Rain = 0
KTAT 190210Z 02006KT 09/M01 A30 RMK A01 T00901006  RH  052%=      5-min Rain = 0
KTAT 190215Z 02006KT 09/M01 A30 RMK A01 T00911008  RH  051%=      5-min Rain = 0
KTAT 190220Z 03006KT 09/M01 A30 RMK A01 T00931007  RH  050%=      5-min Rain = 0
KTAT 190225Z 03007KT 09/01 A30 RMK A01 T00900012  RH  059%=      5-min Rain = 0
KTAT 190230Z 03008KT 08/01 A30 RMK A01 T00830009  RH  060%=      5-min Rain = 0
KTAT 190235Z 03007KT 09/01 A30 RMK A01 T00850007  RH  059%=      5-min Rain = 0
KTAT 190240Z 10002KT 08/00 A3001 RMK A01 T008400-0  RH  056%=      5-min Rain = 0
KTAT 190245Z 14003KT 09/M01 A3001 RMK A01 T00891006  RH  052%=      5-min Rain = 0
KTAT 190250Z 12002KT 09/M01 A3001 RMK A01 T00901011  RH  050%=      5-min Rain = 0
KTAT 190255Z 10003KT 10/M01 A3001 RMK A01 T00981014  RH  046%=      5-min Rain = 0
KTAT 190300Z 09005KT 11/M02 A3001 RMK A01 T01101017  RH  042%=      5-min Rain = 0
KTAT 190305Z 09006KT 11/M02 A3001 RMK A01 T01051018  RH  043%=      5-min Rain = 0
KTAT 190310Z 08007KT 10/M02 A3001 RMK A01 T00961016  RH  046%=      5-min Rain = 0
KTAT 190315Z 08006KT 09/M01 A3001 RMK A01 T00911012  RH  049%=      5-min Rain = 0
KTAT 190320Z 07007KT 09/M00 A3001 RMK A01 T00901002  RH  053%=      5-min Rain = 0
KTAT 190325Z 07007KT 09/M00 A3001 RMK A01 T00851004  RH  054%=      5-min Rain = 0
KTAT 190330Z 07008KT 09/M00 A3001 RMK A01 T00851002  RH  055%=      5-min Rain = 0
KTAT 190335Z 07009KT 08/00 A3001 RMK A01 T00810000  RH  057%=      5-min Rain = 0
KTAT 190340Z 08009KT 08/00 A30 RMK A01 T00770001  RH  060%=      5-min Rain = 0
KTAT 190345Z 08009KT 08/00 A30 RMK A01 T00770003  RH  060%=      5-min Rain = 0
KTAT 190350Z 08008KT 08/M00 A30 RMK A01 T00801002  RH  057%=      5-min Rain = 0
KTAT 190355Z 09008KT 08/M01 A30 RMK A01 T00801009  RH  054%=      5-min Rain = 0
KTAT 190400Z 08009KT 08/M01 A30 RMK A01 T00781010  RH  054%=      5-min Rain = 0
KTAT 190405Z 08008KT 08/M01 A30 RMK A01 T00781007  RH  055%=      5-min Rain = 0
KTAT 190410Z 09005KT 08/M01 A30 RMK A01 T00811010  RH  053%=      5-min Rain = 0
KTAT 190415Z 10004KT 08/M01 A3001 RMK A01 T00791013  RH  053%=      5-min Rain = 0
KTAT 190420Z 09004KT 08/M01 A3001 RMK A01 T00831014  RH  051%=      5-min Rain = 0
KTAT 190425Z 17004G11KT 09/M01 A3001 RMK A01 T00851014  RH  050%=      5-min Rain = 0
KTAT 190430Z 22005G10KT 07/M01 A3001 RMK A01 T00741011  RH  055%=      5-min Rain = 0
KTAT 190435Z 15005KT 09/M01 A3001 RMK A01 T00921010  RH  049%=      5-min Rain = 0
KTAT 190440Z 17005KT 10/M01 A3001 RMK A01 T00981012  RH  047%=      5-min Rain = 0
KTAT 190445Z 17005KT 09/M01 A3001 RMK A01 T00891014  RH  049%=      5-min Rain = 0
KTAT 190450Z 15005KT 09/M02 A3001 RMK A01 T00871015  RH  049%=      5-min Rain = 0
KTAT 190455Z 18004KT 08/M02 A3001 RMK A01 T00821015  RH  051%=      5-min Rain = 0
KTAT 190500Z 21004KT 07/M01 A3001 RMK A01 T00701013  RH  056%=      5-min Rain = 0
KTAT 190505Z 23004KT 06/M01 A3001 RMK A01 T00611012  RH  060%=      5-min Rain = 0
KTAT 190510Z 22005KT 06/M01 A3001 RMK A01 T00601012  RH  060%=      5-min Rain = 0
KTAT 190515Z 22005KT 06/M01 A3001 RMK A01 T00561012  RH  062%=      5-min Rain = 0
KTAT 190520Z 24006KT 05/M01 A3001 RMK A01 T00541013  RH  063%=      5-min Rain = 0
KTAT 190525Z 23006KT 05/M01 A3001 RMK A01 T00511013  RH  064%=      5-min Rain = 0
KTAT 190530Z 25005KT 05/M01 A3001 RMK A01 T00471013  RH  066%=      5-min Rain = 0
KTAT 190535Z 25005KT 04/M01 A3001 RMK A01 T00431013  RH  068%=      5-min Rain = 0
KTAT 190540Z 24006KT 04/M01 A3001 RMK A01 T00431013  RH  068%=      5-min Rain = 0
KTAT 190545Z 23006KT 04/M01 A3001 RMK A01 T00441012  RH  068%=      5-min Rain = 0
KTAT 190550Z 26005KT 04/M01 A3001 RMK A01 T00441013  RH  067%=      5-min Rain = 0
KTAT 190555Z 27005KT 04/M01 A3001 RMK A01 T00391013  RH  070%=      5-min Rain = 0

Page generated in 0.0093 seconds.